sensor_id;sensor_type;location;lat;lon;timestamp;P1;durP1;ratioP1;P2;durP2;ratioP2
67372;SDS011;54257;54.496;18.412;2023-03-21T00:01:02;3.30;;;3.00;;
67372;SDS011;54257;54.496;18.412;2023-03-21T00:03:37;3.70;;;2.70;;
67372;SDS011;54257;54.496;18.412;2023-03-21T00:06:10;3.50;;;2.90;;
67372;SDS011;54257;54.496;18.412;2023-03-21T00:08:42;5.30;;;3.80;;
67372;SDS011;54257;54.496;18.412;2023-03-21T00:11:17;5.90;;;4.00;;
67372;SDS011;54257;54.496;18.412;2023-03-21T00:13:51;4.00;;;3.30;;
67372;SDS011;54257;54.496;18.412;2023-03-21T00:16:25;5.50;;;3.00;;
67372;SDS011;54257;54.496;18.412;2023-03-21T00:19:10;4.80;;;3.50;;
67372;SDS011;54257;54.496;18.412;2023-03-21T00:21:45;5.70;;;3.80;;
67372;SDS011;54257;54.496;18.412;2023-03-21T00:24:26;6.00;;;3.60;;
67372;SDS011;54257;54.496;18.412;2023-03-21T00:27:20;5.20;;;4.00;;
67372;SDS011;54257;54.496;18.412;2023-03-21T00:30:08;6.10;;;3.90;;
67372;SDS011;54257;54.496;18.412;2023-03-21T00:32:57;5.70;;;3.70;;
67372;SDS011;54257;54.496;18.412;2023-03-21T00:35:49;5.70;;;3.60;;
67372;SDS011;54257;54.496;18.412;2023-03-21T00:38:42;5.60;;;3.90;;
67372;SDS011;54257;54.496;18.412;2023-03-21T00:41:20;5.90;;;3.60;;
67372;SDS011;54257;54.496;18.412;2023-03-21T00:44:01;6.10;;;3.80;;
67372;SDS011;54257;54.496;18.412;2023-03-21T00:46:36;4.30;;;3.20;;
67372;SDS011;54257;54.496;18.412;2023-03-21T00:49:09;5.10;;;3.20;;
67372;SDS011;54257;54.496;18.412;2023-03-21T00:51:42;5.30;;;3.90;;
67372;SDS011;54257;54.496;18.412;2023-03-21T00:54:24;6.60;;;3.90;;
67372;SDS011;54257;54.496;18.412;2023-03-21T00:56:58;5.30;;;4.10;;
67372;SDS011;54257;54.496;18.412;2023-03-21T00:59:37;5.50;;;4.00;;
67372;SDS011;54257;54.496;18.412;2023-03-21T01:02:16;5.70;;;4.30;;
67372;SDS011;54257;54.496;18.412;2023-03-21T01:04:53;7.70;;;5.10;;
67372;SDS011;54257;54.496;18.412;2023-03-21T01:07:24;8.10;;;5.50;;
67372;SDS011;54257;54.496;18.412;2023-03-21T01:10:09;7.30;;;4.90;;
67372;SDS011;54257;54.496;18.412;2023-03-21T01:12:41;6.80;;;5.00;;
67372;SDS011;54257;54.496;18.412;2023-03-21T01:15:27;9.10;;;5.80;;
67372;SDS011;54257;54.496;18.412;2023-03-21T01:18:05;9.00;;;5.30;;
67372;SDS011;54257;54.496;18.412;2023-03-21T01:20:42;9.40;;;5.60;;
67372;SDS011;54257;54.496;18.412;2023-03-21T01:23:30;8.90;;;5.80;;
67372;SDS011;54257;54.496;18.412;2023-03-21T01:25:59;6.60;;;5.00;;
67372;SDS011;54257;54.496;18.412;2023-03-21T01:28:33;11.00;;;6.10;;
67372;SDS011;54257;54.496;18.412;2023-03-21T01:31:06;9.00;;;5.90;;
67372;SDS011;54257;54.496;18.412;2023-03-21T01:33:42;9.40;;;6.00;;
67372;SDS011;54257;54.496;18.412;2023-03-21T01:36:22;11.00;;;6.70;;
67372;SDS011;54257;54.496;18.412;2023-03-21T01:38:54;9.30;;;6.00;;
67372;SDS011;54257;54.496;18.412;2023-03-21T01:41:30;9.00;;;5.90;;
67372;SDS011;54257;54.496;18.412;2023-03-21T01:44:03;8.20;;;5.70;;
67372;SDS011;54257;54.496;18.412;2023-03-21T01:46:41;10.00;;;5.90;;
67372;SDS011;54257;54.496;18.412;2023-03-21T01:49:26;9.50;;;5.90;;
67372;SDS011;54257;54.496;18.412;2023-03-21T01:52:10;10.80;;;6.80;;
67372;SDS011;54257;54.496;18.412;2023-03-21T01:54:43;8.30;;;5.60;;
67372;SDS011;54257;54.496;18.412;2023-03-21T01:57:39;12.40;;;7.10;;
67372;SDS011;54257;54.496;18.412;2023-03-21T02:02:48;10.40;;;6.40;;
67372;SDS011;54257;54.496;18.412;2023-03-21T02:08:25;10.70;;;6.30;;
67372;SDS011;54257;54.496;18.412;2023-03-21T02:10:57;11.50;;;7.20;;
67372;SDS011;54257;54.496;18.412;2023-03-21T02:13:30;13.40;;;7.30;;
67372;SDS011;54257;54.496;18.412;2023-03-21T02:31:12;11.10;;;7.00;;
67372;SDS011;54257;54.496;18.412;2023-03-21T02:47:28;9.00;;;6.30;;
67372;SDS011;54257;54.496;18.412;2023-03-21T02:52:48;11.00;;;6.30;;
67372;SDS011;54257;54.496;18.412;2023-03-21T02:55:21;12.00;;;6.00;;
67372;SDS011;54257;54.496;18.412;2023-03-21T02:57:56;10.70;;;6.40;;
67372;SDS011;54257;54.496;18.412;2023-03-21T03:00:31;10.30;;;6.40;;
67372;SDS011;54257;54.496;18.412;2023-03-21T03:03:17;9.30;;;6.10;;
67372;SDS011;54257;54.496;18.412;2023-03-21T03:05:56;11.10;;;6.90;;
67372;SDS011;54257;54.496;18.412;2023-03-21T03:11:39;9.80;;;6.40;;
67372;SDS011;54257;54.496;18.412;2023-03-21T03:17:40;11.50;;;5.90;;
67372;SDS011;54257;54.496;18.412;2023-03-21T03:23:44;9.10;;;5.60;;
67372;SDS011;54257;54.496;18.412;2023-03-21T03:26:42;8.60;;;5.90;;
67372;SDS011;54257;54.496;18.412;2023-03-21T03:29:22;10.00;;;5.90;;
67372;SDS011;54257;54.496;18.412;2023-03-21T03:32:04;9.00;;;6.00;;
67372;SDS011;54257;54.496;18.412;2023-03-21T03:35:00;11.00;;;6.30;;
67372;SDS011;54257;54.496;18.412;2023-03-21T03:37:49;9.40;;;6.30;;
67372;SDS011;54257;54.496;18.412;2023-03-21T03:40:33;9.50;;;5.80;;
67372;SDS011;54257;54.496;18.412;2023-03-21T03:43:21;10.90;;;6.00;;
67372;SDS011;54257;54.496;18.412;2023-03-21T03:46:11;10.20;;;5.50;;
67372;SDS011;54257;54.496;18.412;2023-03-21T03:48:58;10.10;;;6.50;;
67372;SDS011;54257;54.496;18.412;2023-03-21T03:51:58;7.70;;;5.20;;
67372;SDS011;54257;54.496;18.412;2023-03-21T03:54:38;10.40;;;5.00;;
67372;SDS011;54257;54.496;18.412;2023-03-21T03:57:34;9.70;;;5.90;;
67372;SDS011;54257;54.496;18.412;2023-03-21T04:00:25;9.40;;;5.50;;
67372;SDS011;54257;54.496;18.412;2023-03-21T04:02:57;8.00;;;5.00;;
67372;SDS011;54257;54.496;18.412;2023-03-21T04:05:26;10.60;;;5.70;;
67372;SDS011;54257;54.496;18.412;2023-03-21T04:08:01;9.50;;;5.40;;
67372;SDS011;54257;54.496;18.412;2023-03-21T04:10:35;7.90;;;5.20;;
67372;SDS011;54257;54.496;18.412;2023-03-21T04:13:16;9.30;;;4.60;;
67372;SDS011;54257;54.496;18.412;2023-03-21T04:15:54;7.80;;;3.90;;
67372;SDS011;54257;54.496;18.412;2023-03-21T04:18:33;6.70;;;4.70;;
67372;SDS011;54257;54.496;18.412;2023-03-21T04:21:09;6.70;;;4.60;;
67372;SDS011;54257;54.496;18.412;2023-03-21T04:23:40;7.10;;;4.20;;
67372;SDS011;54257;54.496;18.412;2023-03-21T04:26:12;11.50;;;4.90;;
67372;SDS011;54257;54.496;18.412;2023-03-21T04:28:50;10.90;;;5.20;;
67372;SDS011;54257;54.496;18.412;2023-03-21T04:31:25;9.30;;;5.20;;
67372;SDS011;54257;54.496;18.412;2023-03-21T04:33:59;9.20;;;4.80;;
67372;SDS011;54257;54.496;18.412;2023-03-21T04:36:41;7.60;;;4.80;;
67372;SDS011;54257;54.496;18.412;2023-03-21T04:39:19;7.50;;;4.30;;
67372;SDS011;54257;54.496;18.412;2023-03-21T04:41:50;10.00;;;5.60;;
67372;SDS011;54257;54.496;18.412;2023-03-21T04:44:27;9.10;;;4.90;;
67372;SDS011;54257;54.496;18.412;2023-03-21T04:47:00;7.30;;;5.00;;
67372;SDS011;54257;54.496;18.412;2023-03-21T04:49:45;6.90;;;5.00;;
67372;SDS011;54257;54.496;18.412;2023-03-21T04:52:18;8.70;;;4.10;;
67372;SDS011;54257;54.496;18.412;2023-03-21T04:54:47;7.70;;;4.70;;
67372;SDS011;54257;54.496;18.412;2023-03-21T04:57:22;7.40;;;4.70;;
67372;SDS011;54257;54.496;18.412;2023-03-21T04:59:55;9.30;;;5.40;;
67372;SDS011;54257;54.496;18.412;2023-03-21T05:02:37;6.40;;;4.70;;
67372;SDS011;54257;54.496;18.412;2023-03-21T05:05:11;7.00;;;4.80;;
67372;SDS011;54257;54.496;18.412;2023-03-21T05:07:39;9.20;;;5.20;;
67372;SDS011;54257;54.496;18.412;2023-03-21T05:10:11;8.30;;;5.80;;
67372;SDS011;54257;54.496;18.412;2023-03-21T05:12:47;8.40;;;5.20;;
67372;SDS011;54257;54.496;18.412;2023-03-21T05:15:19;10.70;;;5.60;;
67372;SDS011;54257;54.496;18.412;2023-03-21T05:17:52;7.80;;;5.10;;
67372;SDS011;54257;54.496;18.412;2023-03-21T05:20:21;7.60;;;5.30;;
67372;SDS011;54257;54.496;18.412;2023-03-21T05:23:20;8.70;;;5.20;;
67372;SDS011;54257;54.496;18.412;2023-03-21T05:25:50;8.30;;;5.00;;
67372;SDS011;54257;54.496;18.412;2023-03-21T05:28:21;5.40;;;3.80;;
67372;SDS011;54257;54.496;18.412;2023-03-21T05:30:58;7.00;;;4.20;;
67372;SDS011;54257;54.496;18.412;2023-03-21T05:33:33;8.30;;;4.70;;
67372;SDS011;54257;54.496;18.412;2023-03-21T05:36:19;7.30;;;4.80;;
67372;SDS011;54257;54.496;18.412;2023-03-21T05:38:49;6.00;;;4.00;;
67372;SDS011;54257;54.496;18.412;2023-03-21T05:41:17;9.00;;;4.00;;
67372;SDS011;54257;54.496;18.412;2023-03-21T05:43:53;9.00;;;4.60;;
67372;SDS011;54257;54.496;18.412;2023-03-21T05:46:24;9.10;;;4.20;;
67372;SDS011;54257;54.496;18.412;2023-03-21T05:49:03;9.20;;;4.90;;
67372;SDS011;54257;54.496;18.412;2023-03-21T05:51:39;9.20;;;5.00;;
67372;SDS011;54257;54.496;18.412;2023-03-21T05:54:15;9.50;;;4.80;;
67372;SDS011;54257;54.496;18.412;2023-03-21T05:56:48;6.20;;;4.40;;
67372;SDS011;54257;54.496;18.412;2023-03-21T05:59:25;10.40;;;5.10;;
67372;SDS011;54257;54.496;18.412;2023-03-21T06:01:58;9.80;;;5.20;;
67372;SDS011;54257;54.496;18.412;2023-03-21T06:04:37;9.00;;;5.60;;
67372;SDS011;54257;54.496;18.412;2023-03-21T06:07:09;12.30;;;5.20;;
67372;SDS011;54257;54.496;18.412;2023-03-21T06:09:47;6.90;;;4.80;;
67372;SDS011;54257;54.496;18.412;2023-03-21T06:12:16;7.70;;;5.00;;
67372;SDS011;54257;54.496;18.412;2023-03-21T06:14:49;8.00;;;5.00;;
67372;SDS011;54257;54.496;18.412;2023-03-21T06:17:26;6.80;;;6.00;;
67372;SDS011;54257;54.496;18.412;2023-03-21T06:20:02;6.30;;;4.60;;
67372;SDS011;54257;54.496;18.412;2023-03-21T06:22:38;7.60;;;5.10;;
67372;SDS011;54257;54.496;18.412;2023-03-21T06:25:09;7.70;;;5.10;;
67372;SDS011;54257;54.496;18.412;2023-03-21T06:27:44;6.50;;;4.90;;
67372;SDS011;54257;54.496;18.412;2023-03-21T06:30:21;8.10;;;4.80;;
67372;SDS011;54257;54.496;18.412;2023-03-21T06:32:59;8.50;;;5.00;;
67372;SDS011;54257;54.496;18.412;2023-03-21T06:35:33;6.90;;;4.80;;
67372;SDS011;54257;54.496;18.412;2023-03-21T06:38:05;9.50;;;5.50;;
67372;SDS011;54257;54.496;18.412;2023-03-21T06:40:36;8.30;;;4.80;;
67372;SDS011;54257;54.496;18.412;2023-03-21T06:43:10;7.70;;;5.30;;
67372;SDS011;54257;54.496;18.412;2023-03-21T06:45:38;9.50;;;5.00;;
67372;SDS011;54257;54.496;18.412;2023-03-21T06:48:06;7.40;;;5.40;;
67372;SDS011;54257;54.496;18.412;2023-03-21T06:50:34;6.70;;;4.70;;
67372;SDS011;54257;54.496;18.412;2023-03-21T06:53:02;9.10;;;5.20;;
67372;SDS011;54257;54.496;18.412;2023-03-21T06:55:29;7.20;;;4.50;;
67372;SDS011;54257;54.496;18.412;2023-03-21T06:57:57;7.30;;;4.40;;
67372;SDS011;54257;54.496;18.412;2023-03-21T07:00:26;7.10;;;4.90;;
67372;SDS011;54257;54.496;18.412;2023-03-21T07:02:54;6.90;;;4.90;;
67372;SDS011;54257;54.496;18.412;2023-03-21T07:05:21;10.50;;;5.00;;
67372;SDS011;54257;54.496;18.412;2023-03-21T07:07:50;6.80;;;5.00;;
67372;SDS011;54257;54.496;18.412;2023-03-21T07:10:19;10.30;;;6.10;;
67372;SDS011;54257;54.496;18.412;2023-03-21T07:12:50;6.50;;;4.50;;
67372;SDS011;54257;54.496;18.412;2023-03-21T07:15:17;6.80;;;4.70;;
67372;SDS011;54257;54.496;18.412;2023-03-21T07:17:45;7.20;;;5.00;;
67372;SDS011;54257;54.496;18.412;2023-03-21T07:20:14;6.60;;;4.80;;
67372;SDS011;54257;54.496;18.412;2023-03-21T07:22:43;6.90;;;4.10;;
67372;SDS011;54257;54.496;18.412;2023-03-21T07:25:16;6.80;;;4.70;;
67372;SDS011;54257;54.496;18.412;2023-03-21T07:27:48;6.70;;;4.30;;
67372;SDS011;54257;54.496;18.412;2023-03-21T07:30:18;7.10;;;4.30;;
67372;SDS011;54257;54.496;18.412;2023-03-21T07:32:46;6.60;;;3.60;;
67372;SDS011;54257;54.496;18.412;2023-03-21T07:35:15;6.30;;;4.60;;
67372;SDS011;54257;54.496;18.412;2023-03-21T07:37:43;7.30;;;3.80;;
67372;SDS011;54257;54.496;18.412;2023-03-21T07:40:18;6.60;;;5.00;;
67372;SDS011;54257;54.496;18.412;2023-03-21T07:42:47;7.40;;;4.50;;
67372;SDS011;54257;54.496;18.412;2023-03-21T07:45:19;8.00;;;4.80;;
67372;SDS011;54257;54.496;18.412;2023-03-21T07:47:49;9.20;;;4.40;;
67372;SDS011;54257;54.496;18.412;2023-03-21T07:50:25;8.50;;;4.40;;
67372;SDS011;54257;54.496;18.412;2023-03-21T07:53:02;5.20;;;4.00;;
67372;SDS011;54257;54.496;18.412;2023-03-21T07:55:37;6.80;;;4.20;;
67372;SDS011;54257;54.496;18.412;2023-03-21T07:58:13;7.20;;;4.10;;
67372;SDS011;54257;54.496;18.412;2023-03-21T08:00:42;8.20;;;4.30;;
67372;SDS011;54257;54.496;18.412;2023-03-21T08:03:10;5.90;;;3.80;;
67372;SDS011;54257;54.496;18.412;2023-03-21T08:05:38;5.30;;;3.60;;
67372;SDS011;54257;54.496;18.412;2023-03-21T08:08:10;4.60;;;3.40;;
67372;SDS011;54257;54.496;18.412;2023-03-21T08:10:44;5.10;;;3.20;;
67372;SDS011;54257;54.496;18.412;2023-03-21T08:13:26;4.40;;;2.90;;
67372;SDS011;54257;54.496;18.412;2023-03-21T08:16:06;7.00;;;3.30;;
67372;SDS011;54257;54.496;18.412;2023-03-21T08:19:01;4.40;;;3.20;;
67372;SDS011;54257;54.496;18.412;2023-03-21T08:21:45;4.60;;;2.70;;
67372;SDS011;54257;54.496;18.412;2023-03-21T08:24:23;4.40;;;3.20;;
67372;SDS011;54257;54.496;18.412;2023-03-21T08:27:05;5.10;;;3.20;;
67372;SDS011;54257;54.496;18.412;2023-03-21T08:29:58;4.00;;;2.50;;
67372;SDS011;54257;54.496;18.412;2023-03-21T08:32:32;7.00;;;3.10;;
67372;SDS011;54257;54.496;18.412;2023-03-21T08:35:12;9.00;;;3.70;;
67372;SDS011;54257;54.496;18.412;2023-03-21T08:37:50;5.20;;;3.00;;
67372;SDS011;54257;54.496;18.412;2023-03-21T08:40:39;4.60;;;3.00;;
67372;SDS011;54257;54.496;18.412;2023-03-21T08:43:21;4.70;;;2.60;;
67372;SDS011;54257;54.496;18.412;2023-03-21T08:46:01;3.80;;;2.50;;
67372;SDS011;54257;54.496;18.412;2023-03-21T08:48:38;7.50;;;3.00;;
67372;SDS011;54257;54.496;18.412;2023-03-21T08:51:35;5.40;;;3.60;;
67372;SDS011;54257;54.496;18.412;2023-03-21T08:54:23;5.00;;;2.90;;
67372;SDS011;54257;54.496;18.412;2023-03-21T08:57:02;3.30;;;2.70;;
67372;SDS011;54257;54.496;18.412;2023-03-21T08:59:36;5.40;;;3.00;;
67372;SDS011;54257;54.496;18.412;2023-03-21T09:02:15;6.90;;;3.20;;
67372;SDS011;54257;54.496;18.412;2023-03-21T09:04:57;4.10;;;2.60;;
67372;SDS011;54257;54.496;18.412;2023-03-21T09:07:32;4.80;;;3.30;;
67372;SDS011;54257;54.496;18.412;2023-03-21T09:10:07;4.40;;;2.70;;
67372;SDS011;54257;54.496;18.412;2023-03-21T09:12:42;4.40;;;2.00;;
67372;SDS011;54257;54.496;18.412;2023-03-21T09:15:14;2.50;;;1.90;;
67372;SDS011;54257;54.496;18.412;2023-03-21T09:17:50;5.10;;;2.30;;
67372;SDS011;54257;54.496;18.412;2023-03-21T09:20:50;4.80;;;2.70;;
67372;SDS011;54257;54.496;18.412;2023-03-21T09:23:22;3.30;;;2.50;;
67372;SDS011;54257;54.496;18.412;2023-03-21T09:25:54;3.60;;;2.30;;
67372;SDS011;54257;54.496;18.412;2023-03-21T09:28:31;3.80;;;2.60;;
67372;SDS011;54257;54.496;18.412;2023-03-21T09:31:13;3.60;;;2.50;;
67372;SDS011;54257;54.496;18.412;2023-03-21T09:33:49;7.50;;;3.00;;
67372;SDS011;54257;54.496;18.412;2023-03-21T09:36:28;4.70;;;2.80;;
67372;SDS011;54257;54.496;18.412;2023-03-21T09:39:03;6.80;;;2.90;;
67372;SDS011;54257;54.496;18.412;2023-03-21T09:44:36;3.10;;;2.40;;
67372;SDS011;54257;54.496;18.412;2023-03-21T09:47:28;4.10;;;2.80;;
67372;SDS011;54257;54.496;18.412;2023-03-21T09:50:39;6.30;;;2.80;;
67372;SDS011;54257;54.496;18.412;2023-03-21T09:53:33;3.40;;;2.70;;
67372;SDS011;54257;54.496;18.412;2023-03-21T09:56:09;4.70;;;3.30;;
67372;SDS011;54257;54.496;18.412;2023-03-21T10:01:24;5.50;;;3.10;;
67372;SDS011;54257;54.496;18.412;2023-03-21T10:04:00;4.80;;;3.20;;
67372;SDS011;54257;54.496;18.412;2023-03-21T10:06:36;4.60;;;2.50;;
67372;SDS011;54257;54.496;18.412;2023-03-21T10:09:13;5.30;;;2.70;;
67372;SDS011;54257;54.496;18.412;2023-03-21T10:14:24;3.90;;;2.30;;
67372;SDS011;54257;54.496;18.412;2023-03-21T10:20:25;4.30;;;2.10;;
67372;SDS011;54257;54.496;18.412;2023-03-21T10:23:02;5.60;;;2.40;;
67372;SDS011;54257;54.496;18.412;2023-03-21T10:26:00;4.50;;;2.10;;
67372;SDS011;54257;54.496;18.412;2023-03-21T10:28:40;2.90;;;2.00;;
67372;SDS011;54257;54.496;18.412;2023-03-21T10:31:20;4.20;;;2.10;;
67372;SDS011;54257;54.496;18.412;2023-03-21T10:34:05;3.50;;;2.40;;
67372;SDS011;54257;54.496;18.412;2023-03-21T10:37:07;4.80;;;1.90;;
67372;SDS011;54257;54.496;18.412;2023-03-21T10:39:40;3.80;;;2.60;;
67372;SDS011;54257;54.496;18.412;2023-03-21T10:42:31;3.50;;;1.80;;
67372;SDS011;54257;54.496;18.412;2023-03-21T10:45:15;3.10;;;1.70;;
67372;SDS011;54257;54.496;18.412;2023-03-21T10:47:50;2.90;;;2.50;;
67372;SDS011;54257;54.496;18.412;2023-03-21T10:50:29;5.30;;;2.90;;
67372;SDS011;54257;54.496;18.412;2023-03-21T10:53:00;5.60;;;2.80;;
67372;SDS011;54257;54.496;18.412;2023-03-21T10:55:33;8.20;;;5.50;;
67372;SDS011;54257;54.496;18.412;2023-03-21T10:58:18;8.10;;;5.10;;
67372;SDS011;54257;54.496;18.412;2023-03-21T11:01:03;6.40;;;4.30;;
67372;SDS011;54257;54.496;18.412;2023-03-21T11:03:43;3.40;;;2.70;;
67372;SDS011;54257;54.496;18.412;2023-03-21T11:06:28;3.30;;;2.20;;
67372;SDS011;54257;54.496;18.412;2023-03-21T11:09:08;5.20;;;2.90;;
67372;SDS011;54257;54.496;18.412;2023-03-21T11:12:03;2.50;;;2.20;;
67372;SDS011;54257;54.496;18.412;2023-03-21T11:14:44;5.90;;;2.70;;
67372;SDS011;54257;54.496;18.412;2023-03-21T11:20:11;5.50;;;2.20;;
67372;SDS011;54257;54.496;18.412;2023-03-21T11:22:53;2.60;;;2.00;;
67372;SDS011;54257;54.496;18.412;2023-03-21T11:25:36;4.20;;;2.10;;
67372;SDS011;54257;54.496;18.412;2023-03-21T11:28:14;3.90;;;3.10;;
67372;SDS011;54257;54.496;18.412;2023-03-21T11:30:54;3.60;;;2.20;;
67372;SDS011;54257;54.496;18.412;2023-03-21T11:33:35;2.50;;;2.00;;
67372;SDS011;54257;54.496;18.412;2023-03-21T11:38:58;4.20;;;2.40;;
67372;SDS011;54257;54.496;18.412;2023-03-21T11:41:48;3.80;;;2.80;;
67372;SDS011;54257;54.496;18.412;2023-03-21T11:44:27;5.60;;;2.90;;
67372;SDS011;54257;54.496;18.412;2023-03-21T11:47:02;3.30;;;2.00;;
67372;SDS011;54257;54.496;18.412;2023-03-21T11:49:37;3.30;;;2.90;;
67372;SDS011;54257;54.496;18.412;2023-03-21T11:55:12;5.90;;;3.10;;
67372;SDS011;54257;54.496;18.412;2023-03-21T12:12:55;4.00;;;2.50;;
67372;SDS011;54257;54.496;18.412;2023-03-21T12:15:47;3.40;;;2.70;;
67372;SDS011;54257;54.496;18.412;2023-03-21T12:21:25;3.40;;;2.40;;
67372;SDS011;54257;54.496;18.412;2023-03-21T12:24:11;5.20;;;2.50;;
67372;SDS011;54257;54.496;18.412;2023-03-21T12:27:13;8.40;;;3.20;;
67372;SDS011;54257;54.496;18.412;2023-03-21T12:33:17;4.00;;;2.70;;
67372;SDS011;54257;54.496;18.412;2023-03-21T12:36:19;3.10;;;2.70;;
67372;SDS011;54257;54.496;18.412;2023-03-21T12:44:31;3.00;;;2.40;;
67372;SDS011;54257;54.496;18.412;2023-03-21T12:47:18;4.40;;;2.60;;
67372;SDS011;54257;54.496;18.412;2023-03-21T12:56:06;5.50;;;2.80;;
67372;SDS011;54257;54.496;18.412;2023-03-21T12:59:05;4.60;;;2.60;;
67372;SDS011;54257;54.496;18.412;2023-03-21T13:01:50;4.00;;;2.70;;
67372;SDS011;54257;54.496;18.412;2023-03-21T13:04:39;5.00;;;3.20;;
67372;SDS011;54257;54.496;18.412;2023-03-21T13:07:28;3.50;;;2.60;;
67372;SDS011;54257;54.496;18.412;2023-03-21T13:22:06;14.20;;;7.70;;
67372;SDS011;54257;54.496;18.412;2023-03-21T13:25:16;6.00;;;3.90;;
67372;SDS011;54257;54.496;18.412;2023-03-21T13:28:11;31.10;;;14.80;;
67372;SDS011;54257;54.496;18.412;2023-03-21T13:31:24;17.50;;;8.40;;
67372;SDS011;54257;54.496;18.412;2023-03-21T13:34:18;30.40;;;12.30;;
67372;SDS011;54257;54.496;18.412;2023-03-21T13:37:05;30.20;;;14.10;;
67372;SDS011;54257;54.496;18.412;2023-03-21T13:39:46;5.40;;;4.30;;
67372;SDS011;54257;54.496;18.412;2023-03-21T13:42:40;25.30;;;11.90;;
67372;SDS011;54257;54.496;18.412;2023-03-21T13:45:30;25.70;;;12.10;;
67372;SDS011;54257;54.496;18.412;2023-03-21T13:48:31;5.80;;;4.10;;
67372;SDS011;54257;54.496;18.412;2023-03-21T13:54:19;5.00;;;3.70;;
67372;SDS011;54257;54.496;18.412;2023-03-21T14:03:05;4.30;;;3.50;;
67372;SDS011;54257;54.496;18.412;2023-03-21T14:05:59;5.70;;;3.80;;
67372;SDS011;54257;54.496;18.412;2023-03-21T14:08:33;5.70;;;3.50;;
67372;SDS011;54257;54.496;18.412;2023-03-21T14:11:15;4.60;;;3.30;;
67372;SDS011;54257;54.496;18.412;2023-03-21T14:13:54;5.30;;;4.20;;
67372;SDS011;54257;54.496;18.412;2023-03-21T14:16:34;5.00;;;3.50;;
67372;SDS011;54257;54.496;18.412;2023-03-21T14:19:11;4.90;;;3.40;;
67372;SDS011;54257;54.496;18.412;2023-03-21T14:21:45;12.30;;;4.50;;
67372;SDS011;54257;54.496;18.412;2023-03-21T14:24:25;8.80;;;4.50;;
67372;SDS011;54257;54.496;18.412;2023-03-21T14:26:55;6.30;;;4.50;;
67372;SDS011;54257;54.496;18.412;2023-03-21T14:29:29;25.00;;;7.30;;
67372;SDS011;54257;54.496;18.412;2023-03-21T14:32:02;8.00;;;5.30;;
67372;SDS011;54257;54.496;18.412;2023-03-21T14:34:35;5.50;;;4.70;;
67372;SDS011;54257;54.496;18.412;2023-03-21T14:37:10;5.30;;;4.70;;
67372;SDS011;54257;54.496;18.412;2023-03-21T14:39:42;5.80;;;4.50;;
67372;SDS011;54257;54.496;18.412;2023-03-21T14:42:17;7.30;;;4.40;;
67372;SDS011;54257;54.496;18.412;2023-03-21T14:44:48;5.90;;;4.60;;
67372;SDS011;54257;54.496;18.412;2023-03-21T14:47:28;5.90;;;3.60;;
67372;SDS011;54257;54.496;18.412;2023-03-21T14:50:05;3.80;;;3.10;;
67372;SDS011;54257;54.496;18.412;2023-03-21T14:52:37;6.20;;;3.30;;
67372;SDS011;54257;54.496;18.412;2023-03-21T14:55:14;4.70;;;4.00;;
67372;SDS011;54257;54.496;18.412;2023-03-21T14:57:45;4.80;;;4.00;;
67372;SDS011;54257;54.496;18.412;2023-03-21T15:00:35;6.60;;;4.10;;
67372;SDS011;54257;54.496;18.412;2023-03-21T15:03:09;4.70;;;3.90;;
67372;SDS011;54257;54.496;18.412;2023-03-21T15:05:44;6.10;;;4.10;;
67372;SDS011;54257;54.496;18.412;2023-03-21T15:08:23;6.40;;;4.00;;
67372;SDS011;54257;54.496;18.412;2023-03-21T15:11:00;5.00;;;3.70;;
67372;SDS011;54257;54.496;18.412;2023-03-21T15:13:48;5.20;;;4.30;;
67372;SDS011;54257;54.496;18.412;2023-03-21T15:16:22;5.60;;;4.10;;
67372;SDS011;54257;54.496;18.412;2023-03-21T15:18:59;4.40;;;3.40;;
67372;SDS011;54257;54.496;18.412;2023-03-21T15:24:26;4.50;;;3.10;;
67372;SDS011;54257;54.496;18.412;2023-03-21T15:27:00;40.30;;;5.00;;
67372;SDS011;54257;54.496;18.412;2023-03-21T15:29:43;8.00;;;3.50;;
67372;SDS011;54257;54.496;18.412;2023-03-21T15:32:23;6.80;;;4.90;;
67372;SDS011;54257;54.496;18.412;2023-03-21T15:34:54;7.20;;;3.50;;
67372;SDS011;54257;54.496;18.412;2023-03-21T15:37:33;8.20;;;4.10;;
67372;SDS011;54257;54.496;18.412;2023-03-21T15:40:07;4.70;;;3.40;;
67372;SDS011;54257;54.496;18.412;2023-03-21T15:42:42;10.50;;;4.80;;
67372;SDS011;54257;54.496;18.412;2023-03-21T15:53:06;4.50;;;3.40;;
67372;SDS011;54257;54.496;18.412;2023-03-21T15:55:48;5.00;;;3.70;;
67372;SDS011;54257;54.496;18.412;2023-03-21T15:58:23;7.00;;;3.50;;
67372;SDS011;54257;54.496;18.412;2023-03-21T16:00:54;6.60;;;3.40;;
67372;SDS011;54257;54.496;18.412;2023-03-21T16:03:37;8.70;;;5.50;;
67372;SDS011;54257;54.496;18.412;2023-03-21T16:08:48;14.80;;;10.70;;
67372;SDS011;54257;54.496;18.412;2023-03-21T16:14:03;31.90;;;7.50;;
67372;SDS011;54257;54.496;18.412;2023-03-21T16:16:34;25.90;;;5.20;;
67372;SDS011;54257;54.496;18.412;2023-03-21T16:19:13;10.50;;;6.10;;
67372;SDS011;54257;54.496;18.412;2023-03-21T16:21:44;15.30;;;8.60;;
67372;SDS011;54257;54.496;18.412;2023-03-21T16:24:15;33.30;;;13.90;;
67372;SDS011;54257;54.496;18.412;2023-03-21T16:26:49;14.70;;;9.80;;
67372;SDS011;54257;54.496;18.412;2023-03-21T16:29:21;11.30;;;6.30;;
67372;SDS011;54257;54.496;18.412;2023-03-21T16:31:54;10.00;;;6.00;;
67372;SDS011;54257;54.496;18.412;2023-03-21T16:34:29;10.70;;;6.50;;
67372;SDS011;54257;54.496;18.412;2023-03-21T16:37:01;10.70;;;7.10;;
67372;SDS011;54257;54.496;18.412;2023-03-21T16:39:33;17.50;;;11.70;;
67372;SDS011;54257;54.496;18.412;2023-03-21T16:42:05;10.50;;;7.00;;
67372;SDS011;54257;54.496;18.412;2023-03-21T16:44:38;13.60;;;6.80;;
67372;SDS011;54257;54.496;18.412;2023-03-21T16:47:15;18.80;;;8.40;;
67372;SDS011;54257;54.496;18.412;2023-03-21T16:49:54;10.70;;;4.90;;
67372;SDS011;54257;54.496;18.412;2023-03-21T16:52:29;8.60;;;6.00;;
67372;SDS011;54257;54.496;18.412;2023-03-21T16:55:01;14.00;;;7.20;;
67372;SDS011;54257;54.496;18.412;2023-03-21T16:57:46;9.80;;;6.10;;
67372;SDS011;54257;54.496;18.412;2023-03-21T17:00:24;10.40;;;6.50;;
67372;SDS011;54257;54.496;18.412;2023-03-21T17:03:14;18.80;;;12.20;;
67372;SDS011;54257;54.496;18.412;2023-03-21T17:05:52;31.30;;;19.40;;
67372;SDS011;54257;54.496;18.412;2023-03-21T17:08:20;59.30;;;29.10;;
67372;SDS011;54257;54.496;18.412;2023-03-21T17:10:58;14.00;;;9.80;;
67372;SDS011;54257;54.496;18.412;2023-03-21T17:13:35;17.20;;;10.50;;
67372;SDS011;54257;54.496;18.412;2023-03-21T17:16:27;28.10;;;7.70;;
67372;SDS011;54257;54.496;18.412;2023-03-21T17:19:15;17.60;;;7.40;;
67372;SDS011;54257;54.496;18.412;2023-03-21T17:21:57;35.00;;;16.40;;
67372;SDS011;54257;54.496;18.412;2023-03-21T17:24:49;37.50;;;18.40;;
67372;SDS011;54257;54.496;18.412;2023-03-21T17:27:22;36.90;;;18.60;;
67372;SDS011;54257;54.496;18.412;2023-03-21T17:29:59;36.20;;;19.10;;
67372;SDS011;54257;54.496;18.412;2023-03-21T17:33:01;42.20;;;21.50;;
67372;SDS011;54257;54.496;18.412;2023-03-21T17:35:39;22.70;;;13.50;;
67372;SDS011;54257;54.496;18.412;2023-03-21T17:38:21;36.30;;;20.00;;
67372;SDS011;54257;54.496;18.412;2023-03-21T17:40:52;57.80;;;25.40;;
67372;SDS011;54257;54.496;18.412;2023-03-21T17:43:27;40.60;;;18.50;;
67372;SDS011;54257;54.496;18.412;2023-03-21T17:46:05;47.10;;;22.10;;
67372;SDS011;54257;54.496;18.412;2023-03-21T17:48:54;36.00;;;18.20;;
67372;SDS011;54257;54.496;18.412;2023-03-21T17:51:35;22.10;;;12.30;;
67372;SDS011;54257;54.496;18.412;2023-03-21T17:54:17;29.00;;;15.10;;